createdAt,value
2023-05-10T06:42:24.083Z,100117.03
2023-05-10T06:45:10.252Z,100117.03
2023-05-10T06:47:55.910Z,100116.81
2023-05-10T06:50:41.511Z,100120.28
2023-05-10T06:53:26.925Z,100113.72
2023-05-10T06:56:12.129Z,100123.41
2023-05-10T06:58:57.585Z,100129.50
2023-05-10T07:01:43.531Z,100129.47
2023-05-10T07:04:28.878Z,100128.94
2023-05-10T07:07:15.023Z,100097.63
2023-05-10T07:10:00.650Z,100123.53
2023-05-10T07:12:46.074Z,100128.81
2023-05-10T07:15:31.616Z,100132.78
2023-05-10T07:18:17.020Z,100120.06
2023-05-10T07:21:02.851Z,100119.13
2023-05-10T07:23:48.396Z,100120.66
2023-05-10T07:26:33.791Z,100113.09
2023-05-10T07:29:19.213Z,100106.75
2023-05-10T07:32:04.732Z,100124.41
2023-05-10T07:34:50.028Z,100125.78
2023-05-10T07:37:36.056Z,100127.31
2023-05-10T07:40:21.584Z,100113.91
2023-05-10T07:43:07.467Z,100116.47
2023-05-10T07:45:55.398Z,100110.63
2023-05-10T07:48:41.522Z,100117.09
2023-05-10T07:51:27.277Z,100116.16
2023-05-10T07:54:12.355Z,100115.41
2023-05-10T07:56:57.633Z,100109.81
2023-05-10T07:59:43.219Z,100119.78
2023-05-10T08:02:28.231Z,100122.66
2023-05-10T08:05:13.845Z,100095.53
2023-05-10T08:08:00.561Z,100121.97
2023-05-10T08:10:46.008Z,100113.06
2023-05-10T08:13:32.504Z,100110.97
2023-05-10T08:16:18.335Z,100112.84
2023-05-10T08:19:03.861Z,100100.12
2023-05-10T08:21:49.116Z,100109.31
2023-05-10T08:24:39.127Z,100087.00
2023-05-10T08:27:24.321Z,100105.03
2023-05-10T08:30:10.199Z,100102.38
2023-05-10T08:32:55.590Z,100090.25
2023-05-10T08:35:41.027Z,100096.19
2023-05-10T08:38:27.207Z,100098.16
2023-05-10T08:41:12.292Z,100087.53
2023-05-10T08:43:57.551Z,100089.41
2023-05-10T08:46:47.371Z,100096.91
2023-05-10T08:49:34.018Z,100102.47
2023-05-10T08:52:19.541Z,100098.19
2023-05-10T08:55:05.591Z,100076.94
2023-05-10T08:57:50.753Z,100075.69
2023-05-10T09:00:38.063Z,100087.53
2023-05-10T09:03:23.774Z,100091.03
2023-05-10T09:06:09.414Z,100087.47
2023-05-10T09:08:55.051Z,100075.19
2023-05-10T09:11:40.497Z,100075.34
2023-05-10T09:14:26.487Z,100086.66
2023-05-10T09:17:11.831Z,100090.25
2023-05-10T09:20:01.246Z,100078.31
2023-05-10T09:22:46.663Z,100074.41
2023-05-10T09:25:34.308Z,100108.69
2023-05-10T09:28:19.984Z,100093.09
2023-05-10T09:31:05.182Z,100085.06
2023-05-10T09:33:51.028Z,100080.78
2023-05-10T09:36:36.641Z,100086.75
2023-05-10T09:39:22.192Z,100089.28
2023-05-10T09:42:09.756Z,100088.97
2023-05-10T09:44:55.067Z,100077.91
2023-05-10T09:47:40.386Z,100069.66
2023-05-10T09:50:28.104Z,100070.41
2023-05-10T09:53:16.599Z,100061.88
2023-05-10T09:56:02.096Z,100075.69
2023-05-10T09:58:47.474Z,100071.00
2023-05-10T10:01:33.042Z,100073.06
2023-05-10T10:04:18.672Z,100080.75
2023-05-10T10:07:06.128Z,100082.75
2023-05-10T10:09:51.451Z,100084.56
2023-05-10T10:12:36.867Z,100074.44
2023-05-10T10:15:23.519Z,100059.81
2023-05-10T10:18:09.429Z,100054.63
2023-05-10T10:20:55.853Z,100067.97
2023-05-10T10:23:40.915Z,100053.69
2023-05-10T10:26:26.897Z,100045.06
2023-05-10T10:29:32.520Z,100044.50
2023-05-10T10:32:50.359Z,100020.63
2023-05-10T10:35:36.279Z,100035.12
2023-05-10T10:38:22.175Z,100034.50
2023-05-10T10:41:12.748Z,100022.28
2023-05-10T10:44:23.423Z,100020.97
2023-05-10T10:47:25.716Z,100040.06
2023-05-10T10:50:15.870Z,100044.50
2023-05-10T10:53:11.993Z,100039.00
2023-05-10T10:56:08.341Z,100052.88
2023-05-10T10:58:54.943Z,100033.50
2023-05-10T11:01:45.205Z,100013.87
2023-05-10T11:04:43.727Z,100004.03
2023-05-10T11:07:29.058Z,100020.97
2023-05-10T11:10:21.268Z,100012.25
2023-05-10T11:13:11.198Z,99993.63
2023-05-10T11:16:00.299Z,100000.09
2023-05-10T11:18:57.755Z,99994.56
2023-05-10T11:21:48.881Z,99995.03
2023-05-10T11:24:34.850Z,99988.84
2023-05-10T11:27:21.238Z,100016.09
2023-05-10T11:30:08.040Z,99991.34
2023-05-10T11:32:55.877Z,100001.28
2023-05-10T11:35:43.577Z,99991.44
2023-05-10T11:38:30.070Z,100005.56
2023-05-10T11:41:16.744Z,99995.66
2023-05-10T11:44:02.990Z,99992.28
2023-05-10T11:46:48.186Z,99998.63
2023-05-10T11:49:33.875Z,99996.16
2023-05-10T11:52:20.044Z,99987.84
2023-05-10T11:55:08.370Z,100008.47
2023-05-10T11:58:01.614Z,99989.22
2023-05-10T12:00:47.597Z,99991.72
2023-05-10T12:03:33.309Z,99988.44
2023-05-10T12:06:20.240Z,99996.22
2023-05-10T12:09:07.445Z,99979.41
2023-05-10T12:11:57.389Z,99977.25
2023-05-10T12:14:42.582Z,99979.88
2023-05-10T12:17:31.247Z,99988.31
2023-05-10T12:20:25.092Z,99968.53
2023-05-10T12:23:11.162Z,99971.91
2023-05-10T12:26:03.462Z,99970.47
2023-05-10T12:28:50.175Z,99951.53
2023-05-10T12:31:51.246Z,99963.19
2023-05-10T12:34:37.428Z,99955.06
2023-05-10T12:37:25.741Z,99953.09
2023-05-10T12:40:12.503Z,99971.88
